Time;durP1;ratioP1;P1;durP2;ratioP2;P2;SDS_P1;SDS_P2;PMS_P1;PMS_P2;Temp;Humidity;BMP_temperature;BMP_pressure;BME280_temperature;BME280_humidity;BME280_pressure;Samples;Min_cycle;Max_cycle;Signal;HPM_P1;HPM_P2
2024/01/10 00:01:06;;;;;;;7.53;3.60;;;;;;;-1.57;37.69;98121.34;4890176;29;20201;-66
2024/01/10 00:03:33;;;;;;;4.57;2.93;;;;;;;-1.55;37.37;98139.16;4891045;29;20297;-66
2024/01/10 00:06:00;;;;;;;7.57;3.70;;;;;;;-1.48;38.41;98135.91;4890563;29;20295;-64
2024/01/10 00:08:30;;;;;;;9.00;3.87;;;;;;;-1.16;38.06;98135.66;4890607;29;20216;-64
2024/01/10 00:10:57;;;;;;;8.10;3.57;;;;;;;-1.05;38.49;98125.66;4891677;29;20301;-64
2024/01/10 00:13:25;;;;;;;4.73;2.90;;;;;;;-0.91;37.31;98149.63;4894864;29;20244;-66
2024/01/10 00:15:52;;;;;;;6.37;3.27;;;;;;;-1.13;36.54;98134.81;4894072;29;20232;-65
2024/01/10 00:18:19;;;;;;;5.40;3.10;;;;;;;-1.45;36.54;98146.09;4894392;29;20279;-64
2024/01/10 00:20:47;;;;;;;8.47;3.93;;;;;;;-1.86;36.68;98138.56;4894368;29;20267;-65
2024/01/10 00:23:14;;;;;;;12.37;4.50;;;;;;;-2.00;37.18;98144.19;4894893;29;20209;-64
2024/01/10 00:25:41;;;;;;;8.53;3.93;;;;;;;-1.88;37.65;98144.41;4892572;29;20318;-64
2024/01/10 00:28:08;;;;;;;7.50;3.87;;;;;;;-2.01;37.41;98172.91;4894140;29;20216;-64
2024/01/10 00:30:35;;;;;;;6.63;3.20;;;;;;;-2.31;37.43;98170.56;4893922;29;20677;-64
2024/01/10 00:33:02;;;;;;;7.10;3.43;;;;;;;-2.37;37.29;98162.78;4894076;29;20254;-64
2024/01/10 00:35:30;;;;;;;8.90;4.00;;;;;;;-2.40;36.69;98174.56;4893678;29;20290;-67
2024/01/10 00:37:57;;;;;;;6.97;3.63;;;;;;;-2.33;37.62;98169.69;4894027;29;20210;-67
2024/01/10 00:40:24;;;;;;;7.67;4.07;;;;;;;-2.19;37.04;98167.44;4876755;29;20281;-67
2024/01/10 00:42:51;;;;;;;7.30;3.50;;;;;;;-2.23;36.94;98170.72;4894126;29;20656;-64
2024/01/10 00:45:18;;;;;;;6.10;3.20;;;;;;;-2.46;35.99;98157.53;4894172;29;20580;-66
2024/01/10 00:47:46;;;;;;;6.67;3.23;;;;;;;-2.43;37.44;98167.72;4893711;29;20203;-63
2024/01/10 00:50:13;;;;;;;6.47;3.17;;;;;;;-2.62;37.51;98145.34;4893964;29;20299;-64
2024/01/10 00:52:40;;;;;;;8.97;3.73;;;;;;;-2.65;38.14;98165.53;4892277;29;20230;-64
2024/01/10 00:55:08;;;;;;;8.93;4.00;;;;;;;-2.68;37.61;98162.94;4893807;29;20210;-64
2024/01/10 00:57:34;;;;;;;10.17;4.27;;;;;;;-2.45;36.89;98156.69;4893474;29;20290;-67
2024/01/10 01:00:03;;;;;;;8.37;3.83;;;;;;;-2.54;37.23;98161.59;4893445;29;20208;-63
2024/01/10 01:02:30;;;;;;;8.90;4.20;;;;;;;-2.49;37.01;98167.59;4893553;29;20205;-64
2024/01/10 01:04:57;;;;;;;11.10;4.13;;;;;;;-2.52;37.64;98145.59;4893423;29;20272;-66
2024/01/10 01:07:25;;;;;;;7.27;3.30;;;;;;;-2.36;37.99;98158.59;4893514;29;20299;-66
2024/01/10 01:09:52;;;;;;;8.30;3.60;;;;;;;-2.42;38.12;98150.84;4893238;29;20268;-65
2024/01/10 01:12:19;;;;;;;5.33;3.30;;;;;;;-2.35;37.52;98145.09;4893477;29;20652;-63
2024/01/10 01:14:46;;;;;;;3.83;2.60;;;;;;;-2.48;37.09;98138.91;4893351;29;20336;-66
2024/01/10 01:17:13;;;;;;;4.40;2.80;;;;;;;-2.42;37.37;98136.50;4893091;29;20202;-63
2024/01/10 01:19:41;;;;;;;4.10;2.70;;;;;;;-2.31;36.80;98147.75;4893418;29;20221;-64
2024/01/10 01:22:08;;;;;;;5.67;2.87;;;;;;;-2.42;37.23;98139.03;4892154;29;20294;-66
2024/01/10 01:24:35;;;;;;;3.80;2.37;;;;;;;-2.63;37.84;98133.47;4893691;29;20318;-66
2024/01/10 01:27:03;;;;;;;4.77;2.67;;;;;;;-2.66;36.57;98156.22;4893412;29;20189;-65
2024/01/10 01:29:30;;;;;;;6.03;3.20;;;;;;;-2.51;36.24;98149.81;4893213;29;20979;-66
2024/01/10 01:31:57;;;;;;;5.80;3.23;;;;;;;-2.52;35.82;98137.13;4893677;29;20192;-65
2024/01/10 01:34:24;;;;;;;17.47;3.40;;;;;;;-2.51;36.25;98148.97;4893145;29;20188;-65
2024/01/10 01:36:51;;;;;;;6.53;3.77;;;;;;;-2.31;36.68;98141.81;4892876;29;20785;-64
2024/01/10 01:39:19;;;;;;;5.47;3.57;;;;;;;-2.22;36.73;98153.00;4892806;29;20235;-65
2024/01/10 01:41:47;;;;;;;4.40;2.80;;;;;;;-2.22;36.06;98136.91;4893260;29;20306;-64
2024/01/10 01:44:14;;;;;;;5.83;3.40;;;;;;;-2.15;35.99;98134.56;4892698;29;20254;-65
2024/01/10 01:46:41;;;;;;;6.50;3.33;;;;;;;-1.86;35.85;98133.47;4892609;29;20209;-65
2024/01/10 01:49:10;;;;;;;6.03;3.40;;;;;;;-1.94;36.37;98124.00;4892472;29;20200;-64
2024/01/10 01:51:39;;;;;;;5.47;3.07;;;;;;;-1.94;37.79;98126.53;4892475;29;20284;-64
2024/01/10 01:54:11;;;;;;;5.53;3.37;;;;;;;-1.96;36.90;98101.09;4892771;29;20223;-63
2024/01/10 01:56:39;;;;;;;4.83;3.03;;;;;;;-1.86;36.33;98123.34;4892814;29;20203;-66
2024/01/10 01:59:06;;;;;;;6.30;2.90;;;;;;;-2.16;35.73;98125.22;4892720;29;20345;-63
2024/01/10 02:01:35;;;;;;;5.90;3.20;;;;;;;-2.18;35.69;98129.41;4892262;29;20207;-62
2024/01/10 02:04:02;;;;;;;6.80;3.77;;;;;;;-2.69;35.69;98057.28;4892345;29;20592;-64
2024/01/10 02:06:30;;;;;;;5.57;3.20;;;;;;;-2.34;35.67;98111.28;4892178;29;20235;-63
2024/01/10 02:08:57;;;;;;;6.33;3.30;;;;;;;-2.45;36.26;98095.00;4892148;29;20703;-63
2024/01/10 02:11:25;;;;;;;4.97;3.00;;;;;;;-2.17;36.30;98110.84;4890833;29;20583;-65
2024/01/10 02:13:55;;;;;;;4.17;2.60;;;;;;;-2.14;37.19;98095.66;4892491;29;20298;-69
2024/01/10 02:16:24;;;;;;;4.50;2.70;;;;;;;-2.13;35.51;98105.00;4892382;29;20271;-66
2024/01/10 02:18:51;;;;;;;5.20;2.97;;;;;;;-2.07;36.46;98094.97;4892142;29;20198;-67
2024/01/10 02:21:22;;;;;;;5.43;3.50;;;;;;;-2.03;37.84;98100.97;4892508;29;20737;-63
2024/01/10 02:23:49;;;;;;;5.50;3.63;;;;;;;-1.90;39.15;98101.25;4892213;29;20203;-65
2024/01/10 02:26:16;;;;;;;5.93;3.57;;;;;;;-1.87;39.63;98100.44;4890720;29;20232;-64
2024/01/10 02:28:44;;;;;;;6.37;3.37;;;;;;;-2.10;42.22;98097.44;4890653;29;20305;-63
2024/01/10 02:31:11;;;;;;;5.77;3.37;;;;;;;-2.16;42.65;98102.41;4890504;29;20597;-62
2024/01/10 02:33:39;;;;;;;4.37;3.00;;;;;;;-2.16;43.02;98092.25;4891995;29;20199;-68
2024/01/10 02:36:06;;;;;;;6.80;3.70;;;;;;;-2.35;42.84;98107.94;4891851;29;20292;-63
2024/01/10 02:38:33;;;;;;;6.03;3.13;;;;;;;-2.12;42.85;98094.03;4890609;29;20184;-64
2024/01/10 02:41:02;;;;;;;8.53;4.13;;;;;;;-2.20;42.97;98110.75;4891723;29;20199;-64
2024/01/10 02:43:30;;;;;;;8.47;4.40;;;;;;;-2.42;44.36;98117.88;4891443;29;20215;-64
2024/01/10 02:45:58;;;;;;;8.40;3.73;;;;;;;-2.76;45.21;98111.22;4891405;29;20280;-65
2024/01/10 02:48:26;;;;;;;6.63;3.47;;;;;;;-2.70;45.04;98114.72;4890040;29;20551;-67
2024/01/10 02:50:54;;;;;;;7.27;3.63;;;;;;;-2.59;44.75;98113.31;4891921;29;20298;-64
2024/01/10 02:53:21;;;;;;;8.10;3.50;;;;;;;-2.57;42.57;98113.31;4890257;29;20625;-65
2024/01/10 02:55:50;;;;;;;6.33;2.83;;;;;;;-2.47;39.66;98111.03;4890240;29;20215;-65
2024/01/10 02:58:17;;;;;;;5.03;3.10;;;;;;;-2.44;38.60;98105.19;4891340;29;20604;-63
2024/01/10 03:00:44;;;;;;;4.33;3.07;;;;;;;-2.38;37.97;98104.44;4891222;29;20658;-66
2024/01/10 03:03:12;;;;;;;3.63;2.83;;;;;;;-2.44;38.05;98101.78;4891533;29;20271;-68
2024/01/10 03:05:39;;;;;;;3.47;2.43;;;;;;;-2.41;37.04;98104.41;4891348;29;20679;-65
2024/01/10 03:08:06;;;;;;;4.27;2.63;;;;;;;-2.45;40.60;98102.63;4891736;29;20210;-68
2024/01/10 03:10:34;;;;;;;7.73;4.07;;;;;;;-2.40;44.32;98094.28;4891109;29;20216;-65
2024/01/10 03:13:01;;;;;;;6.30;3.70;;;;;;;-2.28;44.83;98091.13;4891118;29;20203;-66
2024/01/10 03:15:28;;;;;;;6.57;4.00;;;;;;;-2.06;45.05;98100.91;4890839;29;20249;-64
2024/01/10 03:17:55;;;;;;;12.17;5.30;;;;;;;-2.08;46.65;98103.41;4890773;29;20732;-66
2024/01/10 03:20:22;;;;;;;7.47;4.20;;;;;;;-2.04;44.55;98078.97;4890899;29;20197;-66
2024/01/10 03:22:49;;;;;;;19.47;3.37;;;;;;;-2.26;45.09;98094.56;4889484;29;20207;-68
2024/01/10 03:25:16;;;;;;;6.90;4.17;;;;;;;-2.54;46.89;98083.00;4891060;29;20253;-67
2024/01/10 03:27:43;;;;;;;5.27;4.00;;;;;;;-2.31;47.62;98097.03;4890814;29;20205;-67
2024/01/10 03:30:11;;;;;;;7.23;4.50;;;;;;;-2.20;47.56;98099.75;4890995;29;20210;-64
2024/01/10 03:32:38;;;;;;;10.47;5.40;;;;;;;-2.15;46.95;98093.97;4890993;29;20211;-67
2024/01/10 03:35:06;;;;;;;12.23;6.33;;;;;;;-2.17;47.13;98100.69;4890684;29;20218;-67
2024/01/10 03:37:33;;;;;;;7.10;4.40;;;;;;;-2.54;48.87;98085.53;4890733;29;20205;-65
2024/01/10 03:40:01;;;;;;;6.83;4.13;;;;;;;-2.53;47.85;98099.91;4890551;29;20207;-67
2024/01/10 03:42:30;;;;;;;8.23;4.07;;;;;;;-2.82;48.64;98081.50;4891436;29;20348;-64
2024/01/10 03:44:57;;;;;;;5.40;3.63;;;;;;;-2.60;49.77;98101.44;4890765;29;20325;-64
2024/01/10 03:47:24;;;;;;;6.20;3.93;;;;;;;-2.53;49.77;98094.81;4890978;29;20221;-64
2024/01/10 03:49:51;;;;;;;7.57;4.43;;;;;;;-2.44;50.51;98096.72;4890689;29;20294;-63
2024/01/10 03:52:19;;;;;;;9.27;4.67;;;;;;;-2.18;49.47;98104.03;4890616;29;20239;-64
2024/01/10 03:54:46;;;;;;;6.50;4.33;;;;;;;-2.45;48.21;98042.59;4890412;29;20232;-62
2024/01/10 03:57:13;;;;;;;8.60;5.03;;;;;;;-2.22;48.67;98098.88;4890451;29;20209;-64
2024/01/10 03:59:40;;;;;;;9.30;4.90;;;;;;;-2.57;49.21;98104.06;4890635;29;20203;-62
2024/01/10 04:02:07;;;;;;;7.80;5.40;;;;;;;-2.50;50.33;98115.19;4890381;29;20271;-63
2024/01/10 04:04:37;;;;;;;10.40;5.73;;;;;;;-2.51;51.22;98108.41;4890708;29;20199;-63
2024/01/10 04:07:04;;;;;;;12.20;5.73;;;;;;;-2.32;50.64;98115.59;4890167;29;20236;-63
2024/01/10 04:09:31;;;;;;;12.97;6.63;;;;;;;-2.31;50.77;98112.25;4890047;29;20346;-63
2024/01/10 04:11:58;;;;;;;9.07;5.20;;;;;;;-2.19;49.13;98115.03;4888810;29;20210;-63
2024/01/10 04:14:25;;;;;;;7.70;4.80;;;;;;;-2.40;46.54;98117.09;4890437;29;20306;-64
2024/01/10 04:16:54;;;;;;;6.60;4.20;;;;;;;-2.33;46.87;98113.88;4889958;29;20244;-63
2024/01/10 04:19:21;;;;;;;12.57;6.80;;;;;;;-2.26;48.85;98117.38;4890314;29;20698;-64
2024/01/10 04:21:48;;;;;;;13.40;6.83;;;;;;;-2.23;48.85;98110.72;4890898;29;20276;-65
2024/01/10 04:24:15;;;;;;;9.87;5.43;;;;;;;-2.49;49.93;98117.75;4890121;29;20209;-62
2024/01/10 04:26:42;;;;;;;11.50;5.93;;;;;;;-2.57;49.09;98115.88;4888538;29;20292;-63
2024/01/10 04:29:09;;;;;;;11.23;5.70;;;;;;;-2.37;49.00;98101.94;4890201;29;20205;-66
2024/01/10 04:31:37;;;;;;;11.83;5.77;;;;;;;-2.12;49.13;98119.38;4890057;29;20195;-64
2024/01/10 04:34:04;;;;;;;13.70;5.23;;;;;;;-2.06;47.82;98113.59;4890642;29;20670;-64
2024/01/10 04:36:31;;;;;;;12.53;5.70;;;;;;;-2.04;47.61;98102.63;4889580;29;20208;-65
2024/01/10 04:38:58;;;;;;;10.10;5.33;;;;;;;-2.00;46.98;98111.19;4888850;29;20280;-65
2024/01/10 04:41:25;;;;;;;9.47;4.77;;;;;;;-2.02;45.80;98103.53;4889758;29;20217;-65
2024/01/10 04:43:52;;;;;;;7.93;4.60;;;;;;;-1.84;46.72;98120.81;4874335;29;20701;-64
2024/01/10 04:46:20;;;;;;;9.20;4.77;;;;;;;-2.17;46.62;98133.69;4873726;29;20613;-65
2024/01/10 04:48:47;;;;;;;9.30;5.07;;;;;;;-2.14;45.71;98140.50;4876459;29;20221;-65
2024/01/10 04:51:14;;;;;;;13.20;5.43;;;;;;;-2.11;46.69;98138.00;4881269;29;20213;-64
2024/01/10 04:53:41;;;;;;;13.47;6.27;;;;;;;-1.97;45.34;98144.22;4889659;29;20193;-64
2024/01/10 04:56:08;;;;;;;9.57;4.50;;;;;;;-2.02;45.89;98144.13;4888875;29;20305;-65
2024/01/10 04:58:36;;;;;;;10.60;5.10;;;;;;;-2.00;46.50;98139.94;4893390;29;20203;-63
2024/01/10 05:01:04;;;;;;;10.83;5.40;;;;;;;-1.96;46.91;98126.47;4893264;29;20208;-65
2024/01/10 05:03:31;;;;;;;15.10;6.33;;;;;;;-2.02;45.82;98123.81;4893270;29;20221;-65
2024/01/10 05:05:58;;;;;;;13.20;5.60;;;;;;;-1.97;46.61;98119.72;4893014;29;20238;-64
2024/01/10 05:08:26;;;;;;;9.10;5.13;;;;;;;-1.97;46.40;98099.41;4885933;29;20609;-63
2024/01/10 05:10:53;;;;;;;11.67;6.13;;;;;;;-1.97;46.67;98123.91;4883507;29;20208;-63
2024/01/10 05:13:20;;;;;;;11.50;4.80;;;;;;;-2.01;47.51;98133.16;4881979;29;20817;-66
2024/01/10 05:15:47;;;;;;;11.70;5.63;;;;;;;-2.09;47.03;98133.81;4884056;29;20227;-66
2024/01/10 05:18:15;;;;;;;18.53;5.87;;;;;;;-2.24;47.33;98147.03;4881260;29;20209;-68
2024/01/10 05:20:42;;;;;;;16.13;6.43;;;;;;;-2.15;48.14;98147.25;4891114;29;20212;-65
2024/01/10 05:23:10;;;;;;;14.00;6.23;;;;;;;-2.08;48.08;98151.59;4892848;29;20245;-64
2024/01/10 05:25:37;;;;;;;11.73;5.83;;;;;;;-1.98;47.85;98145.91;4892864;29;20680;-65
2024/01/10 05:28:05;;;;;;;13.83;5.87;;;;;;;-2.29;48.37;98120.75;4893133;29;20663;-66
2024/01/10 05:30:32;;;;;;;18.23;5.80;;;;;;;-2.23;47.14;98153.84;4893016;29;20652;-65
2024/01/10 05:33:00;;;;;;;18.30;6.90;;;;;;;-2.09;47.29;98146.50;4892504;29;20189;-69
2024/01/10 05:35:28;;;;;;;11.43;5.00;;;;;;;-2.05;47.53;98146.63;4891913;29;20228;-65
2024/01/10 05:37:55;;;;;;;15.50;5.80;;;;;;;-2.06;46.66;98160.09;4892444;29;20201;-66
2024/01/10 05:40:23;;;;;;;11.43;5.57;;;;;;;-2.51;46.35;98161.63;4892708;29;20202;-66
2024/01/10 05:42:50;;;;;;;8.27;4.87;;;;;;;-2.39;47.88;98164.44;4892511;29;20201;-66
2024/01/10 05:45:18;;;;;;;13.67;5.27;;;;;;;-2.29;47.11;98160.44;4906489;29;20594;-67
2024/01/10 05:47:45;;;;;;;11.50;5.00;;;;;;;-2.40;47.21;98164.41;4893019;29;20234;-66
2024/01/10 05:50:12;;;;;;;13.83;5.77;;;;;;;-2.31;47.19;98167.16;4892392;29;20644;-64
2024/01/10 05:52:40;;;;;;;9.37;5.40;;;;;;;-2.30;48.34;98159.59;4892661;29;20717;-64
2024/01/10 05:55:08;;;;;;;9.67;5.10;;;;;;;-2.14;46.21;98169.25;4892297;29;20206;-67
2024/01/10 05:57:39;;;;;;;13.13;6.20;;;;;;;-2.41;47.48;98140.72;4892542;29;20196;-67
2024/01/10 06:00:10;;;;;;;14.73;7.17;;;;;;;-2.04;47.55;98168.59;4892120;29;20276;-64
2024/01/10 06:02:40;;;;;;;13.67;6.30;;;;;;;-2.06;47.97;98170.25;4892276;29;20195;-65
2024/01/10 06:05:08;;;;;;;8.37;4.77;;;;;;;-1.97;47.19;98155.25;4892391;29;20204;-65
2024/01/10 06:07:42;;;;;;;15.93;6.23;;;;;;;-1.90;47.29;98174.00;4892313;29;20240;-65
2024/01/10 06:10:09;;;;;;;17.10;6.83;;;;;;;-1.83;47.03;98153.84;4891904;29;20283;-66
2024/01/10 06:12:38;;;;;;;20.73;7.43;;;;;;;-1.79;49.73;98175.91;4875083;29;20197;-63
2024/01/10 06:15:06;;;;;;;13.83;7.77;;;;;;;-2.08;47.23;98171.91;4891956;29;20673;-65
2024/01/10 06:17:33;;;;;;;16.70;8.73;;;;;;;-2.58;49.18;98178.41;4890574;29;20596;-66
2024/01/10 06:20:01;;;;;;;14.63;8.20;;;;;;;-2.14;49.05;98202.22;4892014;29;20304;-64
2024/01/10 06:22:30;;;;;;;11.10;5.20;;;;;;;-2.11;48.76;98201.44;4892298;29;20227;-67
2024/01/10 06:24:57;;;;;;;12.13;6.03;;;;;;;-2.10;48.02;98193.84;4890286;29;20287;-64
2024/01/10 06:27:24;;;;;;;11.80;4.70;;;;;;;-2.13;47.80;98188.72;4892076;29;20243;-63
2024/01/10 06:29:51;;;;;;;12.50;5.07;;;;;;;-1.91;47.67;98208.66;4891529;29;20211;-66
2024/01/10 06:32:18;;;;;;;8.43;5.20;;;;;;;-1.94;48.43;98203.50;4890010;29;20688;-64
2024/01/10 06:34:45;;;;;;;8.97;4.50;;;;;;;-1.88;47.91;98193.50;4891492;29;20230;-63
2024/01/10 06:37:12;;;;;;;7.27;5.03;;;;;;;-1.76;48.00;98215.75;4891616;29;20542;-64
2024/01/10 06:39:41;;;;;;;6.83;4.17;;;;;;;-1.78;48.23;98220.78;4891899;29;20194;-63
2024/01/10 06:42:10;;;;;;;14.47;4.63;;;;;;;-1.63;48.55;98211.78;4891378;29;20200;-68
2024/01/10 06:44:38;;;;;;;9.97;5.23;;;;;;;-1.70;48.69;98221.81;4889869;29;20213;-65
2024/01/10 06:47:06;;;;;;;8.23;4.83;;;;;;;-1.88;48.38;98203.66;4891040;29;20234;-65
2024/01/10 06:49:33;;;;;;;12.93;6.40;;;;;;;-1.58;48.11;98225.41;4891019;29;20204;-68
2024/01/10 06:52:01;;;;;;;13.37;6.40;;;;;;;-1.66;48.39;98208.34;4891158;29;20681;-66
2024/01/10 06:54:28;;;;;;;11.90;7.30;;;;;;;-1.42;47.29;98219.84;4891212;29;20201;-70
2024/01/10 06:56:55;;;;;;;17.00;8.70;;;;;;;-2.08;48.80;98237.88;4891154;29;20315;-66
2024/01/10 06:59:22;;;;;;;15.43;9.53;;;;;;;-2.08;49.87;98237.88;4890496;29;20225;-65
2024/01/10 07:01:53;;;;;;;20.90;8.90;;;;;;;-2.30;51.01;98228.06;4891186;29;20245;-63
2024/01/10 07:04:23;;;;;;;23.20;9.57;;;;;;;-2.05;50.19;98242.16;4890598;29;20640;-68
2024/01/10 07:06:51;;;;;;;15.97;8.77;;;;;;;-1.85;50.86;98246.00;4890664;29;20239;-66
2024/01/10 07:09:19;;;;;;;12.47;8.23;;;;;;;-1.72;51.04;98242.91;4890307;29;20778;-64
2024/01/10 07:11:47;;;;;;;13.87;6.60;;;;;;;-1.67;49.43;98242.16;4890523;29;20708;-63
2024/01/10 07:14:15;;;;;;;11.90;5.57;;;;;;;-1.51;48.95;98239.97;4890726;29;20745;-67
2024/01/10 07:16:45;;;;;;;16.43;8.13;;;;;;;-1.52;47.69;98240.75;4890066;29;20319;-66
2024/01/10 07:19:14;;;;;;;12.93;6.00;;;;;;;-1.48;46.77;98240.03;4890576;29;20205;-64
2024/01/10 07:21:42;;;;;;;10.63;6.33;;;;;;;-1.32;46.29;98249.66;4889391;29;20747;-64
2024/01/10 07:24:09;;;;;;;40.40;7.43;;;;;;;-1.41;46.42;98237.63;4890640;29;20210;-68
2024/01/10 07:26:41;;;;;;;16.83;6.60;;;;;;;-1.38;46.79;98255.47;4890411;29;20697;-65
2024/01/10 07:29:08;;;;;;;11.60;6.63;;;;;;;-1.28;46.39;98256.53;4890618;29;20678;-65
2024/01/10 07:31:36;;;;;;;11.37;6.97;;;;;;;-1.50;46.42;98234.03;4890697;29;20246;-65
2024/01/10 07:34:06;;;;;;;19.87;8.87;;;;;;;-1.45;46.64;98256.19;4890332;29;20245;-68
2024/01/10 07:36:42;;;;;;;9.50;6.10;;;;;;;-1.38;46.66;98250.38;4890422;29;20790;-65
2024/01/10 07:39:09;;;;;;;15.67;7.13;;;;;;;-1.50;46.46;98259.44;4890392;29;20209;-67
2024/01/10 07:41:37;;;;;;;13.40;6.43;;;;;;;-1.44;47.37;98251.97;4888983;29;20226;-68
2024/01/10 07:44:05;;;;;;;10.50;5.90;;;;;;;-1.14;46.61;98250.88;4890461;29;20297;-68
2024/01/10 07:46:34;;;;;;;11.87;7.07;;;;;;;-1.05;46.75;98256.13;4890030;29;20264;-67
2024/01/10 07:49:01;;;;;;;16.50;7.17;;;;;;;-1.12;46.33;98261.06;4890478;29;20230;-66
2024/01/10 07:51:28;;;;;;;9.30;6.20;;;;;;;-0.87;45.58;98274.25;4888628;29;20205;-65
2024/01/10 07:53:59;;;;;;;12.60;6.67;;;;;;;-0.69;45.40;98266.13;4890350;29;20244;-67
2024/01/10 07:56:26;;;;;;;12.27;7.03;;;;;;;-0.90;45.91;98271.66;4888709;29;20297;-70
2024/01/10 07:58:54;;;;;;;19.50;7.17;;;;;;;-1.04;46.07;98241.72;4889633;29;20586;-64
2024/01/10 08:01:22;;;;;;;10.03;5.70;;;;;;;-0.89;45.22;98270.81;4890005;29;20669;-64
2024/01/10 08:03:50;;;;;;;10.03;6.57;;;;;;;-1.03;46.55;98251.91;4889639;29;20283;-64
2024/01/10 08:06:17;;;;;;;10.90;6.13;;;;;;;-0.83;46.00;98280.28;4889956;29;20636;-65
2024/01/10 08:08:55;;;;;;;10.40;5.60;;;;;;;-0.80;46.01;98277.75;4889863;29;20210;-66
2024/01/10 08:11:24;;;;;;;14.67;6.37;;;;;;;-0.73;45.99;98271.97;4888990;29;20252;-65
2024/01/10 08:13:53;;;;;;;11.87;6.47;;;;;;;-0.75;46.30;98263.47;4888332;29;20270;-64
2024/01/10 08:16:20;;;;;;;10.77;5.87;;;;;;;-0.64;46.73;98277.25;4889632;29;20336;-64
2024/01/10 08:18:47;;;;;;;9.47;6.33;;;;;;;-0.72;46.88;98281.31;4889765;29;20225;-63
2024/01/10 08:21:15;;;;;;;13.57;6.23;;;;;;;-0.91;46.84;98266.56;4888522;29;20727;-65
2024/01/10 08:23:43;;;;;;;13.37;6.07;;;;;;;-0.61;47.02;98279.81;4888703;29;20203;-64
2024/01/10 08:26:11;;;;;;;15.37;6.83;;;;;;;-0.45;47.21;98276.69;4888066;29;20648;-66
2024/01/10 08:28:39;;;;;;;13.33;5.87;;;;;;;-0.82;46.11;98190.44;4873056;29;20203;-64
2024/01/10 08:31:07;;;;;;;16.97;7.60;;;;;;;-0.24;46.53;98269.44;4873069;29;20353;-66
2024/01/10 08:33:34;;;;;;;15.07;7.63;;;;;;;-0.37;46.26;98259.88;4892978;29;20682;-64
2024/01/10 08:36:02;;;;;;;20.67;8.57;;;;;;;-0.40;46.23;98277.66;4893603;29;20217;-64
2024/01/10 08:38:29;;;;;;;15.73;9.27;;;;;;;-0.58;46.33;98277.34;4893160;29;20618;-65
2024/01/10 08:40:56;;;;;;;17.20;8.60;;;;;;;-0.97;46.71;98258.81;4893553;29;20281;-63
2024/01/10 08:43:24;;;;;;;17.10;8.87;;;;;;;-0.67;45.73;98278.84;4892066;29;20270;-64
2024/01/10 08:45:51;;;;;;;16.93;9.57;;;;;;;-0.84;45.27;98251.44;4892078;29;20202;-64
2024/01/10 08:48:18;;;;;;;17.37;9.27;;;;;;;-0.63;46.29;98256.03;4893218;29;20258;-67
2024/01/10 08:50:46;;;;;;;16.27;8.90;;;;;;;-0.20;46.54;98267.78;4893440;29;20238;-66
2024/01/10 08:53:13;;;;;;;20.80;10.23;;;;;;;-0.19;44.90;98262.75;4893275;29;20206;-66
2024/01/10 08:55:42;;;;;;;17.87;9.33;;;;;;;-0.41;46.37;98278.47;4893240;29;20285;-66
2024/01/10 08:58:09;;;;;;;16.07;8.77;;;;;;;-0.64;45.68;98259.44;4876805;29;20404;-64
2024/01/10 09:00:37;;;;;;;13.07;7.40;;;;;;;-0.44;45.18;98268.25;4893394;29;20236;-72
2024/01/10 09:03:04;;;;;;;16.37;7.23;;;;;;;-0.57;46.61;98268.88;4892736;29;20209;-73
2024/01/10 09:05:32;;;;;;;11.90;6.77;;;;;;;-0.25;44.83;98274.50;4893356;29;20207;-73
2024/01/10 09:08:00;;;;;;;18.73;9.80;;;;;;;-0.14;45.04;98271.28;4893357;29;20931;-65
2024/01/10 09:10:27;;;;;;;15.40;8.63;;;;;;;-0.50;44.68;98236.75;4893576;29;20300;-71
2024/01/10 09:12:58;;;;;;;18.93;9.27;;;;;;;-0.66;45.09;98219.53;4893262;29;20531;-72
2024/01/10 09:15:26;;;;;;;13.40;7.77;;;;;;;-0.67;45.38;98208.50;4892782;29;20254;-69
2024/01/10 09:17:53;;;;;;;12.20;7.07;;;;;;;-0.31;43.76;98259.13;4893367;29;20271;-69
2024/01/10 09:20:20;;;;;;;13.97;7.43;;;;;;;-0.43;45.00;98252.16;4894302;29;20387;-72
2024/01/10 09:22:48;;;;;;;18.40;8.87;;;;;;;-0.29;44.38;98254.94;4893011;29;20222;-67
2024/01/10 09:25:16;;;;;;;25.83;9.67;;;;;;;0.18;44.01;98251.41;4892797;29;20263;-64
2024/01/10 09:27:46;;;;;;;15.20;7.70;;;;;;;0.46;44.20;98253.47;4888543;29;20233;-74
2024/01/10 09:30:16;;;;;;;12.73;7.30;;;;;;;0.40;44.85;98242.34;4878614;29;20310;-62
2024/01/10 09:32:45;;;;;;;12.13;6.57;;;;;;;0.57;43.31;98245.97;4884364;29;20900;-62
2024/01/10 09:35:15;;;;;;;11.00;6.10;;;;;;;0.32;43.41;98241.38;4889546;29;20207;-67
2024/01/10 09:37:45;;;;;;;11.53;6.70;;;;;;;0.23;44.76;98238.75;4886518;29;20210;-68
2024/01/10 09:40:15;;;;;;;13.83;5.97;;;;;;;0.62;42.16;98234.13;4887395;29;20204;-62
2024/01/10 09:42:46;;;;;;;14.13;7.17;;;;;;;0.28;43.32;98239.63;4882118;29;20294;-63
2024/01/10 09:45:17;;;;;;;17.90;8.17;;;;;;;0.28;43.64;98219.25;4878219;29;20748;-67
2024/01/10 09:47:56;;;;;;;11.37;6.43;;;;;;;0.53;43.26;98214.50;4892637;29;20253;-63
2024/01/10 09:50:27;;;;;;;9.00;4.67;;;;;;;0.57;43.03;98220.50;4884390;29;20874;-63
2024/01/10 09:53:06;;;;;;;10.20;5.80;;;;;;;0.14;43.23;98167.28;4873598;29;20212;-62
2024/01/10 09:55:36;;;;;;;12.90;6.73;;;;;;;0.75;43.41;98205.41;4872452;29;20214;-69
2024/01/10 09:58:05;;;;;;;12.07;6.07;;;;;;;0.94;43.32;98207.31;4873713;29;20615;-64
2024/01/10 10:00:35;;;;;;;10.93;6.47;;;;;;;0.71;42.74;98218.97;4875105;29;20289;-67
2024/01/10 10:03:07;;;;;;;11.17;6.50;;;;;;;0.57;41.84;98177.16;4872350;29;20237;-65
2024/01/10 10:05:34;;;;;;;9.67;5.77;;;;;;;0.95;42.49;98206.47;4873607;29;20235;-67
2024/01/10 10:08:02;;;;;;;11.40;6.00;;;;;;;1.13;42.45;98211.78;4887944;29;20315;-63
2024/01/10 10:10:30;;;;;;;10.83;4.67;;;;;;;1.06;42.71;98206.59;4873426;29;20727;-67
2024/01/10 10:12:58;;;;;;;8.67;5.40;;;;;;;1.29;43.29;98194.91;4873732;29;20862;-70
2024/01/10 10:15:28;;;;;;;9.00;5.80;;;;;;;1.15;42.23;98187.16;4871845;29;20622;-70
2024/01/10 10:17:55;;;;;;;13.67;6.77;;;;;;;1.20;42.43;98198.22;4871983;29;20279;-64
2024/01/10 10:20:24;;;;;;;11.20;6.67;;;;;;;1.51;42.50;98200.22;4873327;29;20211;-63
2024/01/10 10:23:01;;;;;;;13.10;6.17;;;;;;;1.48;42.26;98186.56;4873197;29;20192;-64
2024/01/10 10:25:31;;;;;;;9.67;5.33;;;;;;;1.42;42.82;98186.53;4873213;29;20618;-69
2024/01/10 10:28:01;;;;;;;10.33;5.70;;;;;;;1.54;42.82;98181.53;4872909;29;20228;-65
2024/01/10 10:30:31;;;;;;;9.03;4.97;;;;;;;1.50;42.04;98180.66;4872523;29;20566;-70
2024/01/10 10:32:58;;;;;;;10.27;5.73;;;;;;;1.62;41.32;98190.09;4886671;29;20228;-67
2024/01/10 10:35:26;;;;;;;12.43;7.30;;;;;;;1.42;41.93;98187.34;4872432;29;20309;-67
2024/01/10 10:38:09;;;;;;;10.37;5.93;;;;;;;1.37;42.51;98181.38;4872958;29;20531;-62
2024/01/10 10:40:36;;;;;;;7.33;4.30;;;;;;;1.20;41.24;98175.28;4871296;29;20196;-64
2024/01/10 10:43:04;;;;;;;8.20;4.67;;;;;;;1.03;42.31;98179.34;4871485;29;20825;-71
2024/01/10 10:45:33;;;;;;;8.53;4.93;;;;;;;0.65;42.18;98147.53;4873699;29;20211;-64
2024/01/10 10:48:01;;;;;;;9.63;4.80;;;;;;;0.73;42.69;98162.06;4872833;29;20647;-62
2024/01/10 10:50:36;;;;;;;8.70;4.63;;;;;;;0.73;42.25;98146.78;4872938;29;20232;-65
2024/01/10 10:53:04;;;;;;;6.87;4.23;;;;;;;0.90;46.13;98167.34;4872760;29;20278;-66
2024/01/10 10:55:35;;;;;;;7.97;4.47;;;;;;;1.47;42.98;98164.44;4872779;29;20302;-63
2024/01/10 10:58:05;;;;;;;10.17;4.30;;;;;;;1.65;42.75;98159.47;4872625;29;20208;-62
2024/01/10 11:00:40;;;;;;;8.83;5.60;;;;;;;1.70;42.35;98152.69;4871286;29;20210;-64
2024/01/10 11:03:11;;;;;;;9.03;5.13;;;;;;;1.45;42.05;98136.38;4870954;29;20219;-63
2024/01/10 11:05:41;;;;;;;9.27;5.43;;;;;;;1.57;41.62;98153.44;4872409;29;20207;-62
2024/01/10 11:08:16;;;;;;;10.23;6.30;;;;;;;1.60;43.12;98144.13;4872266;29;20708;-61
2024/01/10 11:10:51;;;;;;;11.03;5.43;;;;;;;1.98;42.86;98139.25;4870953;29;20678;-65
2024/01/10 11:13:41;;;;;;;8.77;4.73;;;;;;;1.95;41.86;98139.25;4872486;29;20642;-64
2024/01/10 11:16:12;;;;;;;7.50;4.67;;;;;;;2.10;41.21;98134.19;4871806;29;20236;-65
2024/01/10 11:19:09;;;;;;;10.30;6.47;;;;;;;2.14;41.46;98129.97;4871057;29;20210;-63
2024/01/10 11:22:06;;;;;;;8.73;5.00;;;;;;;2.18;40.87;98127.44;4872581;29;20199;-62
2024/01/10 11:24:33;;;;;;;8.30;4.77;;;;;;;2.23;41.42;98133.41;4867439;29;20195;-64
2024/01/10 11:27:11;;;;;;;9.87;4.97;;;;;;;2.41;41.83;98124.97;4870601;29;20223;-66
2024/01/10 11:29:42;;;;;;;13.00;5.97;;;;;;;2.42;41.24;98113.91;4872464;29;20195;-65
2024/01/10 11:32:16;;;;;;;10.83;6.00;;;;;;;2.33;42.03;98118.97;4870550;29;21055;-62
2024/01/10 11:35:00;;;;;;;12.23;6.47;;;;;;;2.47;41.23;98104.56;4855031;29;20207;-63
2024/01/10 11:37:45;;;;;;;13.47;6.20;;;;;;;2.00;41.25;97983.47;4870244;29;20205;-63